createdAt,value
2023-04-04T00:00:50.949Z,1.73
2023-04-04T00:03:17.398Z,1.53
2023-04-04T00:05:45.525Z,1.50
2023-04-04T00:08:11.883Z,1.63
2023-04-04T00:10:38.286Z,1.97
2023-04-04T00:13:05.779Z,1.60
2023-04-04T00:15:32.955Z,1.30
2023-04-04T00:17:59.340Z,1.60
2023-04-04T00:20:26.521Z,1.47
2023-04-04T00:22:53.006Z,1.50
2023-04-04T00:25:20.102Z,1.30
2023-04-04T00:27:47.490Z,1.73
2023-04-04T00:30:14.031Z,1.77
2023-04-04T00:32:40.754Z,1.73
2023-04-04T00:35:07.527Z,1.47
2023-04-04T00:37:34.167Z,1.43
2023-04-04T00:40:00.640Z,1.77
2023-04-04T00:42:27.776Z,2.17
2023-04-04T00:44:54.198Z,1.20
2023-04-04T00:47:24.517Z,1.27
2023-04-04T00:49:51.302Z,1.20
2023-04-04T00:52:17.868Z,1.40
2023-04-04T00:54:45.530Z,1.87
2023-04-04T00:57:11.961Z,1.40
2023-04-04T00:59:38.547Z,1.73
2023-04-04T01:02:05.505Z,1.37
2023-04-04T01:04:32.093Z,1.60
2023-04-04T01:06:58.968Z,1.60
2023-04-04T01:09:25.563Z,1.17
2023-04-04T01:11:52.287Z,1.53
2023-04-04T01:14:18.761Z,1.47
2023-04-04T01:16:45.579Z,1.77
2023-04-04T01:19:16.537Z,1.63
2023-04-04T01:21:43.090Z,1.77
2023-04-04T01:24:10.052Z,1.27
2023-04-04T01:26:37.497Z,1.60
2023-04-04T01:29:03.992Z,1.60
2023-04-04T01:31:36.868Z,1.63
2023-04-04T01:34:10.036Z,1.70
2023-04-04T01:36:41.034Z,1.73
2023-04-04T01:39:27.917Z,1.57
2023-04-04T01:41:56.142Z,1.40
2023-04-04T01:44:22.781Z,1.40
2023-04-04T01:46:53.706Z,1.87
2023-04-04T01:49:20.015Z,1.50
2023-04-04T01:51:46.518Z,1.67
2023-04-04T01:54:13.118Z,1.73
2023-04-04T01:56:39.507Z,1.63
2023-04-04T01:59:07.255Z,1.80
2023-04-04T02:01:34.268Z,1.90
2023-04-04T02:04:00.905Z,1.80
2023-04-04T02:06:27.696Z,1.57
2023-04-04T02:08:54.741Z,1.80
2023-04-04T02:11:23.059Z,1.80
2023-04-04T02:13:49.677Z,1.60
2023-04-04T02:16:16.111Z,2.00
2023-04-04T02:18:42.836Z,1.90
2023-04-04T02:21:09.232Z,1.93
2023-04-04T02:23:35.585Z,1.70
2023-04-04T02:26:01.928Z,2.07
2023-04-04T02:28:28.733Z,1.80
2023-04-04T02:30:55.096Z,1.60
2023-04-04T02:33:22.341Z,1.67
2023-04-04T02:35:48.796Z,2.03
2023-04-04T02:38:15.514Z,2.00
2023-04-04T02:40:42.782Z,2.00
2023-04-04T02:43:09.667Z,2.10
2023-04-04T02:45:35.996Z,1.60
2023-04-04T02:48:03.870Z,1.80
2023-04-04T02:50:30.280Z,1.97
2023-04-04T02:53:01.465Z,1.80
2023-04-04T02:55:28.225Z,2.00
2023-04-04T02:57:54.649Z,2.13
2023-04-04T03:00:21.082Z,2.20
2023-04-04T03:02:53.521Z,2.07
2023-04-04T03:05:19.972Z,1.97
2023-04-04T03:07:46.508Z,2.20
2023-04-04T03:10:12.998Z,2.20
2023-04-04T03:12:39.326Z,2.03
2023-04-04T03:15:07.190Z,2.00
2023-04-04T03:17:33.689Z,2.03
2023-04-04T03:20:00.114Z,2.13
2023-04-04T03:22:27.034Z,2.20
2023-04-04T03:24:53.402Z,2.47
2023-04-04T03:27:19.796Z,2.27
2023-04-04T03:29:46.115Z,2.33
2023-04-04T03:32:15.780Z,2.30
2023-04-04T03:34:42.674Z,2.37
2023-04-04T03:37:09.000Z,2.40
2023-04-04T03:39:35.337Z,2.47
2023-04-04T03:42:01.704Z,2.13
2023-04-04T03:44:28.200Z,2.00
2023-04-04T03:46:54.548Z,2.37
2023-04-04T03:49:21.123Z,2.37
2023-04-04T03:51:48.601Z,3.00
2023-04-04T03:54:15.818Z,2.20
2023-04-04T03:56:43.040Z,2.37
2023-04-04T03:59:09.693Z,2.40
2023-04-04T04:01:36.038Z,2.60
2023-04-04T04:04:02.387Z,2.10
2023-04-04T04:06:28.780Z,2.10
2023-04-04T04:08:56.441Z,2.70
2023-04-04T04:11:23.252Z,2.43
2023-04-04T04:13:49.611Z,2.70
2023-04-04T04:16:16.100Z,2.77
2023-04-04T04:18:42.577Z,2.93
2023-04-04T04:21:09.497Z,3.83
2023-04-04T04:23:36.098Z,3.60
2023-04-04T04:26:02.526Z,4.13
2023-04-04T04:28:33.955Z,3.73
2023-04-04T04:31:04.603Z,3.37
2023-04-04T04:33:30.960Z,4.23
2023-04-04T04:36:02.103Z,3.23
2023-04-04T04:38:28.809Z,3.73
2023-04-04T04:40:55.343Z,3.70
2023-04-04T04:43:21.812Z,4.07
2023-04-04T04:45:48.520Z,3.93
2023-04-04T04:48:19.238Z,2.90
2023-04-04T04:50:47.052Z,3.07
2023-04-04T04:53:13.732Z,3.20
2023-04-04T04:55:40.300Z,3.17
2023-04-04T04:58:06.862Z,2.50
2023-04-04T05:00:33.204Z,3.30
2023-04-04T05:03:02.557Z,3.07
2023-04-04T05:05:29.007Z,2.70
2023-04-04T05:07:55.326Z,3.10
2023-04-04T05:10:21.674Z,2.40
2023-04-04T05:12:48.233Z,3.03
2023-04-04T05:15:14.685Z,2.57
2023-04-04T05:17:41.404Z,2.50
2023-04-04T05:20:08.660Z,2.53
2023-04-04T05:22:35.047Z,2.57
2023-04-04T05:25:01.597Z,3.13
2023-04-04T05:27:28.031Z,2.93
2023-04-04T05:29:54.383Z,2.40
2023-04-04T05:32:20.889Z,2.93
2023-04-04T05:34:47.283Z,3.40
2023-04-04T05:37:13.615Z,3.00
2023-04-04T05:39:39.999Z,3.20
2023-04-04T05:42:06.400Z,3.80
2023-04-04T05:44:33.012Z,3.20
2023-04-04T05:46:59.327Z,3.07
2023-04-04T05:49:25.823Z,3.70
2023-04-04T05:51:52.446Z,4.00
2023-04-04T05:54:18.811Z,4.30
2023-04-04T05:56:45.228Z,3.97
2023-04-04T05:59:11.997Z,4.70
2023-04-04T06:01:38.712Z,3.87
2023-04-04T06:04:05.289Z,3.37
2023-04-04T06:06:32.138Z,3.40
2023-04-04T06:08:58.446Z,3.27
2023-04-04T06:11:24.826Z,3.17
2023-04-04T06:13:52.840Z,3.13
2023-04-04T06:16:19.282Z,2.97
2023-04-04T06:18:45.890Z,2.80
2023-04-04T06:21:13.322Z,3.60
2023-04-04T06:23:41.808Z,3.20
2023-04-04T06:26:11.106Z,3.50
2023-04-04T06:28:37.558Z,3.53
2023-04-04T06:31:07.087Z,3.47
2023-04-04T06:33:33.443Z,3.00
2023-04-04T06:35:59.965Z,3.50
2023-04-04T06:38:27.423Z,3.90
2023-04-04T06:40:53.777Z,2.97
2023-04-04T06:43:20.712Z,3.37
2023-04-04T06:45:47.207Z,2.93
2023-04-04T06:48:13.515Z,3.27
2023-04-04T06:50:40.116Z,2.90
2023-04-04T06:53:06.729Z,3.40
2023-04-04T06:55:33.674Z,3.17
2023-04-04T06:57:59.998Z,3.50
2023-04-04T07:00:26.396Z,3.90
2023-04-04T07:02:59.565Z,3.80
2023-04-04T07:05:26.342Z,3.33
2023-04-04T07:07:54.926Z,3.20
2023-04-04T07:10:21.891Z,3.80
2023-04-04T07:12:48.274Z,2.83
2023-04-04T07:15:15.085Z,2.87
2023-04-04T07:17:41.705Z,2.90
2023-04-04T07:20:08.672Z,3.30
2023-04-04T07:22:38.794Z,3.00
2023-04-04T07:25:05.679Z,2.67
2023-04-04T07:27:32.335Z,3.30
2023-04-04T07:29:58.713Z,3.27
2023-04-04T07:32:29.457Z,3.07
2023-04-04T07:34:55.803Z,3.17
2023-04-04T07:37:22.634Z,2.93
2023-04-04T07:39:50.123Z,3.10
2023-04-04T07:42:17.040Z,3.50
2023-04-04T07:44:43.356Z,3.20
2023-04-04T07:47:10.920Z,2.93
2023-04-04T07:49:37.668Z,2.83
2023-04-04T07:52:05.046Z,3.10
2023-04-04T07:54:31.891Z,3.17
2023-04-04T07:56:58.246Z,2.90
2023-04-04T07:59:24.677Z,3.20
2023-04-04T08:01:51.259Z,2.90
2023-04-04T08:04:17.998Z,3.03
2023-04-04T08:06:44.437Z,3.33
2023-04-04T08:09:11.942Z,3.60
2023-04-04T08:11:38.443Z,3.00
2023-04-04T08:14:06.136Z,2.97
2023-04-04T08:16:32.775Z,2.83
2023-04-04T08:19:00.739Z,2.70
2023-04-04T08:21:27.697Z,2.50
2023-04-04T08:23:54.643Z,2.40
2023-04-04T08:26:22.023Z,2.37
2023-04-04T08:28:48.789Z,2.73
2023-04-04T08:31:15.320Z,2.40
2023-04-04T08:33:47.055Z,2.37
2023-04-04T08:36:14.186Z,2.07
2023-04-04T08:38:40.667Z,2.20
2023-04-04T08:41:07.384Z,1.97
2023-04-04T08:43:35.371Z,2.23
2023-04-04T08:46:04.214Z,2.40
2023-04-04T08:48:31.427Z,1.90
2023-04-04T08:50:59.678Z,1.60
2023-04-04T08:53:26.714Z,1.40
2023-04-04T08:55:54.287Z,1.70
2023-04-04T08:58:21.325Z,2.30
2023-04-04T09:00:47.951Z,1.80
2023-04-04T09:03:22.782Z,1.70
2023-04-04T09:05:49.868Z,1.70
2023-04-04T09:08:18.194Z,1.50
2023-04-04T09:10:45.591Z,1.63
2023-04-04T09:13:16.075Z,1.70
2023-04-04T09:15:47.649Z,1.60
2023-04-04T09:18:14.214Z,1.80
2023-04-04T09:20:41.982Z,1.47
2023-04-04T09:23:10.968Z,1.50
2023-04-04T09:25:37.837Z,1.80
2023-04-04T09:28:05.803Z,1.60
2023-04-04T09:30:33.949Z,1.40
2023-04-04T09:33:01.501Z,1.90
2023-04-04T09:35:28.012Z,1.63
2023-04-04T09:37:54.363Z,1.90
2023-04-04T09:40:24.714Z,1.43
2023-04-04T09:42:53.744Z,1.80
2023-04-04T09:45:31.547Z,1.80
2023-04-04T09:47:58.727Z,1.60
2023-04-04T09:50:25.633Z,1.60
2023-04-04T09:52:52.793Z,1.83
2023-04-04T09:55:19.647Z,1.87
2023-04-04T09:57:48.773Z,1.53
2023-04-04T10:00:19.544Z,1.60
2023-04-04T10:02:49.330Z,1.57
2023-04-04T10:05:16.919Z,1.50
2023-04-04T10:07:44.230Z,1.60
2023-04-04T10:10:11.115Z,1.93
2023-04-04T10:12:37.759Z,1.87
2023-04-04T10:15:04.586Z,1.90
2023-04-04T10:17:38.566Z,2.20
2023-04-04T10:20:06.547Z,1.50
2023-04-04T10:22:33.934Z,1.50
2023-04-04T10:25:00.685Z,1.60
2023-04-04T10:27:27.399Z,1.97
2023-04-04T10:29:53.884Z,1.77
2023-04-04T10:32:28.056Z,1.77
2023-04-04T10:35:02.888Z,1.70
2023-04-04T10:37:32.188Z,2.17
2023-04-04T10:40:04.696Z,2.03
2023-04-04T10:42:33.436Z,2.00
2023-04-04T10:45:12.917Z,1.87
2023-04-04T10:47:47.005Z,1.90
2023-04-04T10:50:13.671Z,1.77
2023-04-04T10:52:41.986Z,1.90
2023-04-04T10:55:09.734Z,1.77
2023-04-04T10:57:37.395Z,1.70
2023-04-04T11:00:10.939Z,1.83
2023-04-04T11:02:48.176Z,2.10
2023-04-04T11:05:17.802Z,1.90
2023-04-04T11:07:53.905Z,2.00
2023-04-04T11:10:31.981Z,1.87
2023-04-04T11:13:12.628Z,1.63
2023-04-04T11:15:56.754Z,1.67
2023-04-04T11:18:43.714Z,1.67
2023-04-04T11:21:13.826Z,2.07
2023-04-04T11:23:49.479Z,2.40
2023-04-04T11:26:34.437Z,1.93
2023-04-04T11:29:03.062Z,2.10
2023-04-04T11:31:32.691Z,2.20
2023-04-04T11:34:08.202Z,1.70
2023-04-04T11:36:41.638Z,1.70
2023-04-04T11:39:15.492Z,1.77
2023-04-04T11:42:10.981Z,1.90
2023-04-04T11:44:41.216Z,2.10
2023-04-04T11:47:09.194Z,1.90
2023-04-04T11:49:39.627Z,2.53
2023-04-04T11:52:07.191Z,2.03
2023-04-04T11:54:33.975Z,2.00
2023-04-04T11:57:00.449Z,2.20
2023-04-04T11:59:27.798Z,1.90
2023-04-04T12:01:54.881Z,2.10
2023-04-04T12:04:22.636Z,2.00
2023-04-04T12:06:51.435Z,2.03
2023-04-04T12:09:18.750Z,2.00
2023-04-04T12:11:45.646Z,2.30
2023-04-04T12:14:15.844Z,2.50
2023-04-04T12:16:43.097Z,2.63
2023-04-04T12:19:09.471Z,2.00
2023-04-04T12:21:35.922Z,3.10
2023-04-04T12:24:02.601Z,2.43
2023-04-04T12:26:29.996Z,2.67
2023-04-04T12:28:58.159Z,2.10
2023-04-04T12:31:25.833Z,2.27
2023-04-04T12:33:52.287Z,2.30
2023-04-04T12:36:18.887Z,2.20
2023-04-04T12:38:58.674Z,2.63
2023-04-04T12:41:25.210Z,1.97
2023-04-04T12:43:51.864Z,2.20
2023-04-04T12:46:18.238Z,2.13
2023-04-04T12:48:48.917Z,2.30
2023-04-04T12:51:15.973Z,2.10
2023-04-04T12:53:53.001Z,2.10
2023-04-04T12:56:19.981Z,2.60
2023-04-04T12:58:48.120Z,2.10
2023-04-04T13:01:15.493Z,2.13
2023-04-04T13:03:41.989Z,2.40
2023-04-04T13:06:15.839Z,2.20
2023-04-04T13:08:52.437Z,2.03
2023-04-04T13:11:19.345Z,2.70
2023-04-04T13:16:34.013Z,2.87
2023-04-04T13:19:00.901Z,2.53
2023-04-04T13:21:27.483Z,3.30
2023-04-04T13:23:54.969Z,2.60
2023-04-04T13:26:24.357Z,2.63
2023-04-04T13:28:51.121Z,2.73
2023-04-04T13:31:17.676Z,2.13
2023-04-04T13:33:44.232Z,2.60
2023-04-04T13:36:10.773Z,2.30
2023-04-04T13:38:37.349Z,2.60
2023-04-04T13:41:03.915Z,2.70
2023-04-04T13:43:30.307Z,2.23
2023-04-04T13:45:56.702Z,2.63
2023-04-04T13:48:23.169Z,2.23
2023-04-04T13:50:53.226Z,2.50
2023-04-04T13:53:20.020Z,2.73
2023-04-04T13:56:07.553Z,2.50
2023-04-04T13:58:36.486Z,2.73
2023-04-04T14:01:04.362Z,2.60
2023-04-04T14:03:31.252Z,2.60
2023-04-04T14:05:59.143Z,2.50
2023-04-04T14:08:28.409Z,2.60
2023-04-04T14:10:54.719Z,2.67
2023-04-04T14:13:21.436Z,2.97
2023-04-04T14:15:49.138Z,2.70
2023-04-04T14:18:15.766Z,2.77
2023-04-04T14:20:42.182Z,3.13
2023-04-04T14:23:09.657Z,2.63
2023-04-04T14:25:36.457Z,3.10
2023-04-04T14:28:02.902Z,2.73
2023-04-04T14:30:29.368Z,3.03
2023-04-04T14:32:56.840Z,2.83
2023-04-04T14:35:23.235Z,2.30
2023-04-04T14:37:49.997Z,2.67
2023-04-04T14:40:16.620Z,2.33
2023-04-04T14:42:42.942Z,3.00
2023-04-04T14:45:11.346Z,2.77
2023-04-04T14:47:37.759Z,3.73
2023-04-04T14:50:04.537Z,3.30
2023-04-04T14:52:31.325Z,3.40
2023-04-04T14:54:57.885Z,2.80
2023-04-04T14:57:24.286Z,3.20
2023-04-04T14:59:51.393Z,3.40
2023-04-04T15:02:18.279Z,3.10
2023-04-04T15:04:47.159Z,2.90
2023-04-04T15:07:13.716Z,3.50
2023-04-04T15:09:40.363Z,2.60
2023-04-04T15:12:06.794Z,3.17
2023-04-04T15:14:33.235Z,3.03
2023-04-04T15:16:59.908Z,3.10
2023-04-04T15:19:26.361Z,3.00
2023-04-04T15:21:53.266Z,2.53
2023-04-04T15:24:19.607Z,3.60
2023-04-04T15:26:46.291Z,3.57
2023-04-04T15:29:14.602Z,3.07
2023-04-04T15:31:41.245Z,3.00
2023-04-04T15:34:07.804Z,3.60
2023-04-04T15:36:34.232Z,3.90
2023-04-04T15:39:01.118Z,3.30
2023-04-04T15:41:28.216Z,3.57
2023-04-04T15:43:54.737Z,3.33
2023-04-04T15:46:23.279Z,3.30
2023-04-04T15:48:51.974Z,3.13
2023-04-04T15:51:18.542Z,3.37
2023-04-04T15:53:44.911Z,3.60
2023-04-04T15:56:11.443Z,3.27
2023-04-04T15:58:37.751Z,3.63
2023-04-04T16:01:04.208Z,3.67
2023-04-04T16:03:30.861Z,3.43
2023-04-04T16:05:58.539Z,3.50
2023-04-04T16:08:24.904Z,3.60
2023-04-04T16:10:51.642Z,3.80
2023-04-04T16:13:18.097Z,3.43
2023-04-04T16:15:44.441Z,3.67
2023-04-04T16:18:11.216Z,3.63
2023-04-04T16:20:37.590Z,3.77
2023-04-04T16:23:05.919Z,4.80
2023-04-04T16:25:32.212Z,4.40
2023-04-04T16:27:58.629Z,4.03
2023-04-04T16:30:26.090Z,4.17
2023-04-04T16:32:52.802Z,4.63
2023-04-04T16:35:19.177Z,4.47
2023-04-04T16:37:46.419Z,3.60
2023-04-04T16:40:14.154Z,4.67
2023-04-04T16:42:41.789Z,4.47
2023-04-04T16:45:09.300Z,4.33
2023-04-04T16:47:36.621Z,4.27
2023-04-04T16:50:04.220Z,4.03
2023-04-04T16:52:31.221Z,4.03
2023-04-04T16:54:57.583Z,4.13
2023-04-04T16:57:24.389Z,4.20
2023-04-04T16:59:50.887Z,4.27
2023-04-04T17:02:17.456Z,4.43
2023-04-04T17:04:44.158Z,4.33
2023-04-04T17:07:10.580Z,4.00
2023-04-04T17:09:37.121Z,4.90
2023-04-04T17:12:03.631Z,3.90
2023-04-04T17:14:32.133Z,3.87
2023-04-04T17:17:00.546Z,4.27
2023-04-04T17:19:29.822Z,4.73
2023-04-04T17:21:56.807Z,3.90
2023-04-04T17:24:25.428Z,4.27
2023-04-04T17:26:52.046Z,4.80
2023-04-04T17:29:26.378Z,4.37
2023-04-04T17:31:56.619Z,4.47
2023-04-04T17:34:23.446Z,4.30
2023-04-04T17:36:50.224Z,4.50
2023-04-04T17:39:16.840Z,3.80
2023-04-04T17:41:46.680Z,4.83
2023-04-04T17:44:14.007Z,4.30
2023-04-04T17:46:40.576Z,4.50
2023-04-04T17:49:07.849Z,4.47
2023-04-04T17:51:34.548Z,4.70
2023-04-04T17:54:01.373Z,4.37
2023-04-04T17:56:27.836Z,4.80
2023-04-04T17:58:57.724Z,5.13
2023-04-04T18:01:26.021Z,4.23
2023-04-04T18:03:52.568Z,4.27
2023-04-04T18:06:19.023Z,4.50
2023-04-04T18:08:49.452Z,5.27
2023-04-04T18:11:16.396Z,4.80
2023-04-04T18:13:42.831Z,4.83
2023-04-04T18:16:09.884Z,5.90
2023-04-04T18:18:37.358Z,4.97
2023-04-04T18:21:03.818Z,4.60
2023-04-04T18:23:30.603Z,5.50
2023-04-04T18:25:57.176Z,5.20
2023-04-04T18:28:23.554Z,5.67
2023-04-04T18:30:49.967Z,5.63
2023-04-04T18:33:16.486Z,4.87
2023-04-04T18:35:43.909Z,5.37
2023-04-04T18:38:10.279Z,5.70
2023-04-04T18:40:36.806Z,5.57
2023-04-04T18:43:04.228Z,5.70
2023-04-04T18:45:39.829Z,6.70
2023-04-04T18:48:07.061Z,5.70
2023-04-04T18:50:33.477Z,6.37
2023-04-04T18:52:59.875Z,5.50
2023-04-04T18:55:26.333Z,5.50
2023-04-04T18:57:52.693Z,6.13
2023-04-04T19:00:21.578Z,5.50
2023-04-04T19:02:48.105Z,6.00
2023-04-04T19:05:15.452Z,5.90
2023-04-04T19:07:44.823Z,6.93
2023-04-04T19:10:11.189Z,5.87
2023-04-04T19:12:37.643Z,6.13
2023-04-04T19:15:05.746Z,6.03
2023-04-04T19:17:32.648Z,6.60
2023-04-04T19:19:59.118Z,6.63
2023-04-04T19:22:25.655Z,5.73
2023-04-04T19:24:52.353Z,6.47
2023-04-04T19:27:18.923Z,6.10
2023-04-04T19:29:45.408Z,6.73
2023-04-04T19:32:17.004Z,7.30
2023-04-04T19:34:43.576Z,6.03
2023-04-04T19:37:11.332Z,6.40
2023-04-04T19:39:39.218Z,6.87
2023-04-04T19:42:08.121Z,7.27
2023-04-04T19:44:36.318Z,6.23
2023-04-04T19:47:02.636Z,7.13
2023-04-04T19:49:33.535Z,6.73
2023-04-04T19:52:01.957Z,7.03
2023-04-04T19:54:31.622Z,7.27
2023-04-04T19:56:59.579Z,7.37
2023-04-04T19:59:44.658Z,6.40
2023-04-04T20:02:30.260Z,6.43
2023-04-04T20:04:57.020Z,6.50
2023-04-04T20:07:24.055Z,6.37
2023-04-04T20:09:54.117Z,6.07
2023-04-04T20:12:24.634Z,5.60
2023-04-04T20:14:51.755Z,5.73
2023-04-04T20:17:18.365Z,5.97
2023-04-04T20:19:44.705Z,5.83
2023-04-04T20:22:11.498Z,5.13
2023-04-04T20:24:39.354Z,5.53
2023-04-04T20:27:05.900Z,4.23
2023-04-04T20:29:33.521Z,4.77
2023-04-04T20:32:01.111Z,4.77
2023-04-04T20:34:32.965Z,5.13
2023-04-04T20:36:59.843Z,4.70
2023-04-04T20:39:46.148Z,5.10
2023-04-04T20:42:27.992Z,5.97
2023-04-04T20:44:54.795Z,4.50
2023-04-04T20:47:40.020Z,4.80
2023-04-04T20:50:38.544Z,4.43
2023-04-04T20:53:06.168Z,5.40
2023-04-04T20:55:34.219Z,4.83
2023-04-04T20:58:08.645Z,4.87
2023-04-04T21:00:42.101Z,4.77
2023-04-04T21:03:12.100Z,5.70
2023-04-04T21:05:39.067Z,5.03
2023-04-04T21:08:29.618Z,5.53
2023-04-04T21:10:57.366Z,4.77
2023-04-04T21:13:27.187Z,5.23
2023-04-04T21:15:59.427Z,5.20
2023-04-04T21:18:27.644Z,5.57
2023-04-04T21:20:56.996Z,5.20
2023-04-04T21:23:26.393Z,5.50
2023-04-04T21:26:00.583Z,5.50
2023-04-04T21:28:42.878Z,5.13
2023-04-04T21:31:13.767Z,5.47
2023-04-04T21:33:47.372Z,5.30
2023-04-04T21:36:29.312Z,5.50
2023-04-04T21:38:59.674Z,5.30
2023-04-04T21:41:29.920Z,5.03
2023-04-04T21:44:00.797Z,5.83
2023-04-04T21:46:28.282Z,6.50
2023-04-04T21:48:56.225Z,5.53
2023-04-04T21:51:22.745Z,5.60
2023-04-04T21:53:49.934Z,6.23
2023-04-04T21:56:16.888Z,5.50
2023-04-04T21:58:43.560Z,5.60
2023-04-04T22:01:09.986Z,5.80
2023-04-04T22:03:39.486Z,5.47
2023-04-04T22:06:06.310Z,5.47
2023-04-04T22:08:32.819Z,6.83
2023-04-04T22:11:01.413Z,5.70
2023-04-04T22:13:32.803Z,5.93
2023-04-04T22:16:00.362Z,6.10
2023-04-04T22:18:30.713Z,6.07
2023-04-04T22:20:58.226Z,6.23
2023-04-04T22:23:26.415Z,5.90
2023-04-04T22:25:52.825Z,6.03
2023-04-04T22:28:24.744Z,5.97
2023-04-04T22:30:51.562Z,5.37
2023-04-04T22:33:17.944Z,6.73
2023-04-04T22:35:45.581Z,6.00
2023-04-04T22:38:14.544Z,6.00
2023-04-04T22:40:42.013Z,6.77
2023-04-04T22:43:09.492Z,5.90
2023-04-04T22:45:35.873Z,5.70
2023-04-04T22:48:03.650Z,5.73
2023-04-04T22:50:29.995Z,7.23
2023-04-04T22:52:58.752Z,6.50
2023-04-04T22:55:26.071Z,6.37
2023-04-04T22:57:52.392Z,5.63
2023-04-04T23:00:19.030Z,6.30
2023-04-04T23:02:47.222Z,6.20
2023-04-04T23:05:14.382Z,6.57
2023-04-04T23:07:44.311Z,6.73
2023-04-04T23:10:11.788Z,6.23
2023-04-04T23:12:38.596Z,6.27
2023-04-04T23:15:05.967Z,6.80
2023-04-04T23:17:33.218Z,6.67
2023-04-04T23:20:00.191Z,6.47
2023-04-04T23:22:27.441Z,5.83
2023-04-04T23:24:53.772Z,6.77
2023-04-04T23:27:20.371Z,6.10
2023-04-04T23:29:47.374Z,6.87
2023-04-04T23:32:13.840Z,6.80
2023-04-04T23:34:40.481Z,6.80
2023-04-04T23:37:07.468Z,6.30
2023-04-04T23:39:33.809Z,5.60
2023-04-04T23:42:00.151Z,6.83
2023-04-04T23:44:26.515Z,7.03
2023-04-04T23:46:52.964Z,7.17
2023-04-04T23:49:20.279Z,6.17
2023-04-04T23:51:47.261Z,6.60
2023-04-04T23:54:13.986Z,6.57
2023-04-04T23:56:40.694Z,6.50
2023-04-04T23:59:07.115Z,6.93
